Airport Name : Bradford Rgnl

Other Name : Bradford Rgnl

ICAO : KBFD

IATA : BFD

FAA : BFD

Latitude : 41.803067

Longitude : -78.640122

Country : United States

Local Date and Time : 7/18/2018 5:46:00 PM

 

TAF (Terminal Aerodrome Forecast)

KBFD 181741Z 1818/1918 36005KT P6SM SCT040 FM182300 VRB03KT P6SM SKC FM190600 00000KT P6SM VCFG SKC FM191200 16005KT P6SM FEW040

 

METAR (METeorological Aerodrome Report)

KBFD 182134Z AUTO 35006KT 10SM FEW002 SCT050 23/10 A3006 RMK AO2 T02280100

KBFD 182053Z AUTO 36006KT 10SM BKN055 24/11 A3006 RMK AO2 SLP170 T02390106 58004

KBFD 181953Z AUTO VRB04KT 10SM CLR 23/09 A3007 RMK AO2 SLP174 T02330094

KBFD 181853Z AUTO VRB06KT 10SM CLR 22/09 A3008 RMK AO2 SLP177 T02220094

KBFD 181753Z AUTO 03007G15KT 10SM FEW045 24/11 A3008 RMK AO2 SLP172 T02390106 10244 20150 58007